createdAt,value
2019-04-07T00:00:09.284Z,94511.42
2019-04-07T00:02:37.046Z,94509.05
2019-04-07T00:05:12.356Z,94511.22
2019-04-07T00:07:34.523Z,94518.38
2019-04-07T00:10:02.876Z,94516.33
2019-04-07T00:12:31.047Z,94513.78
2019-04-07T00:14:58.932Z,94518.64
2019-04-07T00:17:27.243Z,94518.03
2019-04-07T00:19:55.734Z,94512.77
2019-04-07T00:22:23.839Z,94516.32
2019-04-07T00:24:51.606Z,94520.26
2019-04-07T00:27:19.987Z,94510.59
2019-04-07T00:29:48.653Z,94506.96
2019-04-07T00:32:16.753Z,94504.69
2019-04-07T00:34:45.145Z,94499.98
2019-04-07T00:37:13.923Z,94505.17
2019-04-07T00:39:42.276Z,94505.02
2019-04-07T00:42:10.468Z,94499.81
2019-04-07T00:44:38.982Z,94495.57
2019-04-07T00:47:07.383Z,94491.44
2019-04-07T00:49:35.761Z,94500.05
2019-04-07T00:52:05.060Z,94490.42
2019-04-07T00:54:32.798Z,94485.94
2019-04-07T00:57:00.990Z,94486.11
2019-04-07T00:59:29.719Z,94496.23
2019-04-07T01:01:58.009Z,94492.11
2019-04-07T01:04:26.514Z,94493.14
2019-04-07T01:06:54.850Z,94486.47
2019-04-07T01:09:23.279Z,94485.64
2019-04-07T01:11:52.275Z,94487.27
2019-04-07T01:14:20.186Z,94482.43
2019-04-07T01:16:48.219Z,94478.78
2019-04-07T01:19:16.223Z,94474.78
2019-04-07T01:21:44.488Z,94471.62
2019-04-07T01:24:12.406Z,94477.80
2019-04-07T01:26:40.494Z,94475.82
2019-04-07T01:29:09.225Z,94473.30
2019-04-07T01:31:37.372Z,94468.98
2019-04-07T01:34:05.967Z,94459.83
2019-04-07T01:36:33.856Z,94459.11
2019-04-07T01:39:01.744Z,94461.31
2019-04-07T01:41:51.446Z,94461.78
2019-04-07T01:44:41.059Z,94459.11
2019-04-07T01:47:27.761Z,94450.82
2019-04-07T01:50:09.729Z,94449.11
2019-04-07T01:52:43.802Z,94450.77
2019-04-07T01:55:25.791Z,94445.81
2019-04-07T01:58:12.760Z,94446.81
2019-04-07T02:00:58.809Z,94439.84
2019-04-07T02:03:37.333Z,94442.64
2019-04-07T02:06:23.177Z,94444.16
2019-04-07T02:09:10.290Z,94445.80
2019-04-07T02:12:01.610Z,94441.31
2019-04-07T02:14:54.876Z,94437.49
2019-04-07T02:17:40.677Z,94435.97
2019-04-07T02:20:34.496Z,94433.63
2019-04-07T02:23:30.283Z,94433.81
2019-04-07T02:26:09.285Z,94429.16
2019-04-07T02:28:58.836Z,94431.81
2019-04-07T02:31:52.269Z,94434.66
2019-04-07T02:34:26.104Z,94438.16
2019-04-07T02:37:07.309Z,94429.33
2019-04-07T02:39:59.979Z,94428.48
2019-04-07T02:42:48.324Z,94435.46
2019-04-07T02:45:24.543Z,94435.46
2019-04-07T02:48:24.143Z,94436.78
2019-04-07T02:51:01.956Z,94432.80
2019-04-07T02:54:03.770Z,94436.93
2019-04-07T02:56:50.683Z,94432.97
2019-04-07T02:59:33.438Z,94432.77
2019-04-07T03:02:14.856Z,94430.48
2019-04-07T03:05:06.308Z,94427.16
2019-04-07T03:07:59.596Z,94431.33
2019-04-07T03:10:42.384Z,94428.63
2019-04-07T03:13:26.216Z,94426.13
2019-04-07T03:16:07.616Z,94421.73
2019-04-07T03:18:43.136Z,94406.20
2019-04-07T03:21:28.391Z,94406.20
2019-04-07T03:24:06.378Z,94425.14
2019-04-07T03:26:51.973Z,94417.23
2019-04-07T03:29:45.261Z,94423.84
2019-04-07T03:32:46.671Z,94428.77
2019-04-07T03:35:46.128Z,94419.69
2019-04-07T03:38:36.679Z,94415.92
2019-04-07T03:41:12.103Z,94420.08
2019-04-07T03:43:48.040Z,94416.58
2019-04-07T03:46:41.218Z,94419.27
2019-04-07T03:49:43.383Z,94413.80
2019-04-07T03:52:21.259Z,94422.57
2019-04-07T03:55:06.642Z,94430.05
2019-04-07T03:57:52.595Z,94422.28
2019-04-07T04:00:41.085Z,94418.18
2019-04-07T04:03:17.023Z,94424.77
2019-04-07T04:06:06.842Z,94423.69
2019-04-07T04:08:56.745Z,94426.80
2019-04-07T04:11:43.760Z,94425.00
2019-04-07T04:14:17.165Z,94419.97
2019-04-07T04:16:49.104Z,94426.68
2019-04-07T04:19:17.122Z,94417.84
2019-04-07T04:21:45.588Z,94412.71
2019-04-07T04:24:14.370Z,94414.20
2019-04-07T04:26:42.233Z,94412.92
2019-04-07T04:29:10.400Z,94417.70
2019-04-07T04:31:38.918Z,94413.89
2019-04-07T04:34:06.942Z,94420.57
2019-04-07T04:36:36.003Z,94412.55
2019-04-07T04:39:04.976Z,94418.52
2019-04-07T04:41:33.026Z,94414.83
2019-04-07T04:44:00.777Z,94418.17
2019-04-07T04:46:28.633Z,94420.48
2019-04-07T04:48:56.706Z,94422.19
2019-04-07T04:51:24.884Z,94424.36
2019-04-07T04:53:53.715Z,94424.16
2019-04-07T04:56:22.741Z,94427.61
2019-04-07T04:58:51.843Z,94427.70
2019-04-07T05:01:20.457Z,94432.94
2019-04-07T05:03:49.365Z,94430.72
2019-04-07T05:06:17.967Z,94429.80
2019-04-07T05:08:46.798Z,94428.80
2019-04-07T05:11:14.695Z,94430.95
2019-04-07T05:13:43.152Z,94435.48
2019-04-07T05:16:11.840Z,94434.98
2019-04-07T05:18:39.797Z,94433.19
2019-04-07T05:21:07.619Z,94435.08
2019-04-07T05:23:36.008Z,94440.77
2019-04-07T05:26:04.561Z,94442.79
2019-04-07T05:28:36.799Z,94439.80
2019-04-07T05:31:02.468Z,94443.80
2019-04-07T05:33:30.845Z,94444.64
2019-04-07T05:35:59.302Z,94441.30
2019-04-07T05:38:27.498Z,94441.13
2019-04-07T05:40:55.427Z,94438.96
2019-04-07T05:43:23.162Z,94433.80
2019-04-07T05:45:51.117Z,94434.66
2019-04-07T05:48:20.334Z,94445.13
2019-04-07T05:50:48.842Z,94441.01
2019-04-07T05:53:17.005Z,94434.83
2019-04-07T05:55:44.927Z,94446.63
2019-04-07T05:58:15.494Z,94445.63
2019-04-07T06:00:45.930Z,94451.45
2019-04-07T06:03:12.244Z,94449.28
2019-04-07T06:05:40.130Z,94452.10
2019-04-07T06:08:22.373Z,94450.11
2019-04-07T06:10:38.663Z,94455.78
2019-04-07T06:13:06.833Z,94458.11
2019-04-07T06:15:34.564Z,94454.40
2019-04-07T06:18:02.631Z,94445.34
2019-04-07T06:20:31.303Z,94448.26
2019-04-07T06:22:59.723Z,94448.70
2019-04-07T06:25:33.129Z,94450.89
2019-04-07T06:27:57.837Z,94453.01
2019-04-07T06:30:28.074Z,94451.34
2019-04-07T06:32:55.540Z,94454.64
2019-04-07T06:35:23.536Z,94456.80
2019-04-07T06:37:52.039Z,94456.66
2019-04-07T06:40:20.642Z,94457.64
2019-04-07T06:42:49.949Z,94455.27
2019-04-07T06:45:21.132Z,94459.00
2019-04-07T06:47:53.512Z,94455.15
2019-04-07T06:50:47.391Z,94458.30
2019-04-07T06:53:21.264Z,94463.59
2019-04-07T06:56:11.125Z,94465.45
2019-04-07T06:59:06.761Z,94463.17
2019-04-07T07:02:12.090Z,94455.37
2019-04-07T07:04:58.284Z,94455.19
2019-04-07T07:07:49.062Z,94450.52
2019-04-07T07:10:45.652Z,94450.87
2019-04-07T07:13:36.619Z,94454.73
2019-04-07T07:16:36.106Z,94457.56
2019-04-07T07:19:14.151Z,94457.70
2019-04-07T07:22:00.168Z,94455.85
2019-04-07T07:24:28.108Z,94459.00
2019-04-07T07:26:57.936Z,94461.81
2019-04-07T07:29:26.866Z,94461.32
2019-04-07T07:31:59.755Z,94465.77
2019-04-07T07:34:24.305Z,94455.06
2019-04-07T07:36:54.891Z,94458.06
2019-04-07T07:39:23.135Z,94459.77
2019-04-07T07:41:52.191Z,94460.27
2019-04-07T07:44:20.674Z,94458.34
2019-04-07T07:46:50.419Z,94456.09
2019-04-07T07:49:18.208Z,94455.05
2019-04-07T07:51:48.595Z,94447.19
2019-04-07T07:54:16.168Z,94452.22
2019-04-07T07:56:48.684Z,94453.46
2019-04-07T07:59:13.765Z,94463.11
2019-04-07T08:01:44.248Z,94461.58
2019-04-07T08:04:11.240Z,94458.91
2019-04-07T08:06:41.004Z,94464.08
2019-04-07T08:09:13.715Z,94461.73
2019-04-07T08:11:38.921Z,94462.30
2019-04-07T08:14:07.824Z,94461.06
2019-04-07T08:16:35.763Z,94459.91
2019-04-07T08:19:04.014Z,94463.42
2019-04-07T08:21:32.629Z,94463.83
2019-04-07T08:24:01.345Z,94468.59
2019-04-07T08:26:29.939Z,94456.70
2019-04-07T08:28:57.982Z,94457.92
2019-04-07T08:31:25.785Z,94451.94
2019-04-07T08:33:53.769Z,94452.72
2019-04-07T08:36:21.623Z,94448.03
2019-04-07T08:38:51.748Z,94459.16
2019-04-07T08:41:19.022Z,94455.07
2019-04-07T08:43:47.046Z,94454.31
2019-04-07T08:46:15.298Z,94451.14
2019-04-07T08:48:43.188Z,94445.11
2019-04-07T08:51:11.263Z,94444.59
2019-04-07T08:53:43.553Z,94440.52
2019-04-07T08:56:08.949Z,94438.81
2019-04-07T08:58:38.885Z,94439.27
2019-04-07T09:01:07.394Z,94434.38
2019-04-07T09:03:35.832Z,94439.59
2019-04-07T09:06:04.579Z,94424.34
2019-04-07T09:08:34.635Z,94426.88
2019-04-07T09:11:11.150Z,94422.41
2019-04-07T09:13:39.553Z,94418.78
2019-04-07T09:16:19.999Z,94413.79
2019-04-07T09:19:05.640Z,94419.30
2019-04-07T09:21:54.243Z,94410.48
2019-04-07T09:24:40.077Z,94414.89
2019-04-07T09:27:19.505Z,94407.45
2019-04-07T09:30:02.447Z,94409.45
2019-04-07T09:32:48.570Z,94397.13
2019-04-07T09:35:36.243Z,94399.27
2019-04-07T09:38:24.958Z,94400.92
2019-04-07T09:41:06.363Z,94405.49
2019-04-07T09:44:03.208Z,94399.57
2019-04-07T09:46:51.439Z,94392.98
2019-04-07T09:49:30.925Z,94390.23
2019-04-07T09:52:15.045Z,94386.95
2019-04-07T09:54:53.778Z,94375.39
2019-04-07T09:57:40.813Z,94368.67
2019-04-07T10:00:22.861Z,94375.14
2019-04-07T10:03:12.683Z,94371.86
2019-04-07T10:05:56.469Z,94363.55
2019-04-07T10:08:55.450Z,94374.05
2019-04-07T10:11:46.151Z,94369.88
2019-04-07T10:14:43.965Z,94360.91
2019-04-07T10:17:37.247Z,94361.13
2019-04-07T10:20:36.936Z,94353.27
2019-04-07T10:23:19.679Z,94354.92
2019-04-07T10:26:10.415Z,94349.86
2019-04-07T10:29:01.732Z,94350.86
2019-04-07T10:32:01.258Z,94338.73
2019-04-07T10:34:56.663Z,94338.73
2019-04-07T10:37:37.847Z,94335.92
2019-04-07T10:40:20.348Z,94329.02
2019-04-07T10:43:07.530Z,94329.55
2019-04-07T10:45:46.269Z,94327.55
2019-04-07T10:48:35.695Z,94326.84
2019-04-07T10:51:37.891Z,94326.00
2019-04-07T10:54:25.166Z,94326.21
2019-04-07T10:57:03.261Z,94322.83
2019-04-07T11:00:05.865Z,94329.14
2019-04-07T11:02:55.928Z,94320.63
2019-04-07T11:05:34.566Z,94320.00
2019-04-07T11:08:27.169Z,94323.41
2019-04-07T11:11:16.885Z,94322.59
2019-04-07T11:14:03.523Z,94318.13
2019-04-07T11:16:49.842Z,94317.00
2019-04-07T11:19:38.732Z,94317.25
2019-04-07T11:22:25.546Z,94314.83
2019-04-07T11:25:10.920Z,94316.80
2019-04-07T11:28:00.369Z,94312.69
2019-04-07T11:30:42.026Z,94307.41
2019-04-07T11:33:35.085Z,94312.66
2019-04-07T11:36:37.408Z,94293.31
2019-04-07T11:39:27.536Z,94302.41
2019-04-07T11:42:33.337Z,94292.58
2019-04-07T11:45:26.970Z,94290.61
2019-04-07T11:48:25.926Z,94295.37
2019-04-07T11:51:08.178Z,94292.61
2019-04-07T11:54:09.810Z,94289.98
2019-04-07T11:56:53.601Z,94290.09
2019-04-07T11:59:53.983Z,94284.16
2019-04-07T12:02:46.985Z,94283.99
2019-04-07T12:05:49.396Z,94272.36
2019-04-07T12:08:32.356Z,94277.91
2019-04-07T12:11:14.572Z,94271.02
2019-04-07T12:14:09.011Z,94273.59
2019-04-07T12:16:50.415Z,94275.67
2019-04-07T12:19:43.138Z,94276.30
2019-04-07T12:22:28.797Z,94273.47
2019-04-07T12:25:05.750Z,94268.67
2019-04-07T12:27:58.202Z,94265.42
2019-04-07T12:30:32.696Z,94262.58
2019-04-07T12:33:25.310Z,94255.55
2019-04-07T12:36:02.062Z,94254.18
2019-04-07T12:38:52.276Z,94252.35
2019-04-07T12:41:40.069Z,94254.22
2019-04-07T12:44:17.103Z,94254.01
2019-04-07T12:47:08.003Z,94248.31
2019-04-07T12:49:53.787Z,94249.00
2019-04-07T12:52:39.264Z,94245.41
2019-04-07T12:55:26.390Z,94241.61
2019-04-07T12:58:04.897Z,94245.80
2019-04-07T13:00:56.980Z,94240.91
2019-04-07T13:03:25.529Z,94236.16
2019-04-07T13:06:12.218Z,94239.72
2019-04-07T13:08:56.931Z,94238.86
2019-04-07T13:11:37.291Z,94239.63
2019-04-07T13:14:22.610Z,94238.80
2019-04-07T13:17:04.200Z,94239.92
2019-04-07T13:20:09.547Z,94239.53
2019-04-07T13:22:55.173Z,94237.45
2019-04-07T13:25:38.604Z,94241.81
2019-04-07T13:28:12.600Z,94231.87
2019-04-07T13:31:02.939Z,94235.10
2019-04-07T13:34:01.677Z,94239.27
2019-04-07T13:36:51.900Z,94236.93
2019-04-07T13:39:27.416Z,94237.30
2019-04-07T13:42:29.272Z,94235.06
2019-04-07T13:45:19.168Z,94239.98
2019-04-07T13:47:52.472Z,94234.20
2019-04-07T13:50:39.114Z,94239.09
2019-04-07T13:53:27.035Z,94232.59
2019-04-07T13:56:25.487Z,94237.05
2019-04-07T13:59:01.092Z,94237.38
2019-04-07T14:01:52.390Z,94239.72
2019-04-07T14:04:36.091Z,94238.06
2019-04-07T14:07:23.523Z,94233.69
2019-04-07T14:10:05.005Z,94232.25
2019-04-07T14:13:06.225Z,94236.63
2019-04-07T14:16:11.614Z,94225.77
2019-04-07T14:18:54.328Z,94223.23
2019-04-07T14:21:30.644Z,94222.52
2019-04-07T14:24:23.790Z,94223.17
2019-04-07T14:27:00.987Z,94225.58
2019-04-07T14:29:47.061Z,94226.76
2019-04-07T14:32:32.812Z,94227.49
2019-04-07T14:35:31.881Z,94224.94
2019-04-07T14:38:27.658Z,94221.51
2019-04-07T14:41:14.599Z,94220.61
2019-04-07T14:43:54.049Z,94215.86
2019-04-07T14:46:40.136Z,94211.09
2019-04-07T14:49:28.682Z,94214.25
2019-04-07T14:52:19.930Z,94216.45
2019-04-07T14:55:22.654Z,94215.48
2019-04-07T14:58:13.078Z,94215.20
2019-04-07T15:01:02.654Z,94217.16
2019-04-07T15:03:27.512Z,94221.91
2019-04-07T15:05:57.977Z,94220.66
2019-04-07T15:08:47.433Z,94218.54
2019-04-07T15:11:34.405Z,94223.96
2019-04-07T15:14:02.862Z,94216.59
2019-04-07T15:16:30.754Z,94216.74
2019-04-07T15:18:58.753Z,94218.31
2019-04-07T15:21:27.436Z,94219.77
2019-04-07T15:23:56.170Z,94219.92
2019-04-07T15:26:24.747Z,94224.30
2019-04-07T15:28:52.820Z,94223.20
2019-04-07T15:31:21.619Z,94223.05
2019-04-07T15:33:49.794Z,94224.94
2019-04-07T15:36:19.559Z,94222.67
2019-04-07T15:38:47.574Z,94226.14
2019-04-07T15:41:17.890Z,94224.44
2019-04-07T15:43:45.298Z,94229.59
2019-04-07T15:46:17.347Z,94224.52
2019-04-07T15:48:43.200Z,94223.29
2019-04-07T15:51:13.209Z,94223.52
2019-04-07T15:53:44.627Z,94225.77
2019-04-07T15:56:13.967Z,94229.70
2019-04-07T15:58:40.853Z,94232.30
2019-04-07T16:01:09.437Z,94229.81
2019-04-07T16:03:38.818Z,94231.52
2019-04-07T16:06:07.720Z,94232.41
2019-04-07T16:08:35.925Z,94231.09
2019-04-07T16:11:03.829Z,94232.59
2019-04-07T16:13:31.767Z,94231.75
2019-04-07T16:15:59.986Z,94227.84
2019-04-07T16:18:28.513Z,94227.21
2019-04-07T16:20:56.395Z,94229.04
2019-04-07T16:23:24.350Z,94230.20
2019-04-07T16:25:52.370Z,94235.15
2019-04-07T16:28:20.754Z,94231.76
2019-04-07T16:30:51.778Z,94239.27
2019-04-07T16:33:18.415Z,94233.66
2019-04-07T16:35:50.997Z,94240.17
2019-04-07T16:38:16.370Z,94241.53
2019-04-07T16:40:44.687Z,94233.45
2019-04-07T16:43:15.427Z,94238.53
2019-04-07T16:45:44.948Z,94238.67
2019-04-07T16:48:12.802Z,94242.50
2019-04-07T16:50:41.793Z,94247.13
2019-04-07T16:53:09.512Z,94249.95
2019-04-07T16:55:37.432Z,94254.73
2019-04-07T16:58:05.279Z,94251.30
2019-04-07T17:00:33.254Z,94255.49
2019-04-07T17:03:02.456Z,94251.15
2019-04-07T17:05:30.378Z,94249.92
2019-04-07T17:07:59.338Z,94247.56
2019-04-07T17:10:30.982Z,94255.62
2019-04-07T17:12:59.523Z,94253.80
2019-04-07T17:15:26.321Z,94256.53
2019-04-07T17:17:54.644Z,94260.52
2019-04-07T17:20:25.899Z,94263.83
2019-04-07T17:22:52.985Z,94265.22
2019-04-07T17:25:21.697Z,94261.99
2019-04-07T17:27:49.867Z,94264.84
2019-04-07T17:30:18.939Z,94261.34
2019-04-07T17:32:46.951Z,94270.27
2019-04-07T17:35:17.229Z,94266.75
2019-04-07T17:37:44.417Z,94267.55
2019-04-07T17:40:15.638Z,94273.12
2019-04-07T17:42:43.975Z,94275.53
2019-04-07T17:45:37.462Z,94277.75
2019-04-07T17:48:46.613Z,94283.67
2019-04-07T17:51:12.862Z,94285.63
2019-04-07T17:54:00.594Z,94296.34
2019-04-07T17:56:45.579Z,94293.40
2019-04-07T17:59:37.739Z,94299.95
2019-04-07T18:02:47.630Z,94291.65
2019-04-07T18:05:33.006Z,94291.65
2019-04-07T18:08:15.831Z,94317.92
2019-04-07T18:10:54.142Z,94310.20
2019-04-07T18:13:49.731Z,94308.66
2019-04-07T18:16:46.178Z,94310.94
2019-04-07T18:19:32.848Z,94314.02
2019-04-07T18:22:18.243Z,94315.16
2019-04-07T18:25:07.104Z,94314.17
2019-04-07T18:28:00.234Z,94306.94
2019-04-07T18:30:53.891Z,94315.27
2019-04-07T18:33:41.396Z,94314.60
2019-04-07T18:36:28.797Z,94313.64
2019-04-07T18:39:17.339Z,94319.40
2019-04-07T18:42:06.550Z,94313.50
2019-04-07T18:44:52.163Z,94314.13
2019-04-07T18:47:45.548Z,94307.55
2019-04-07T18:50:26.240Z,94307.64
2019-04-07T18:53:04.533Z,94309.02
2019-04-07T18:55:50.458Z,94307.30
2019-04-07T18:58:51.650Z,94313.88
2019-04-07T19:01:38.984Z,94308.34
2019-04-07T19:04:26.620Z,94305.44
2019-04-07T19:06:58.705Z,94304.05
2019-04-07T19:09:39.241Z,94300.50
2019-04-07T19:12:20.448Z,94307.00
2019-04-07T19:15:15.607Z,94308.98
2019-04-07T19:18:20.905Z,94304.91
2019-04-07T19:21:09.917Z,94302.39
2019-04-07T19:23:58.647Z,94303.73
2019-04-07T19:26:52.305Z,94308.39
2019-04-07T19:29:49.909Z,94310.94
2019-04-07T19:32:34.340Z,94315.56
2019-04-07T19:35:21.775Z,94308.47
2019-04-07T19:38:03.390Z,94304.89
2019-04-07T19:40:49.352Z,94307.64
2019-04-07T19:43:43.733Z,94304.58
2019-04-07T19:46:32.944Z,94300.80
2019-04-07T19:49:20.424Z,94301.25
2019-04-07T19:52:07.046Z,94300.27
2019-04-07T19:54:51.428Z,94294.22
2019-04-07T19:57:47.003Z,94292.53
2019-04-07T20:00:51.649Z,94287.94
2019-04-07T20:03:39.853Z,94294.26
2019-04-07T20:06:17.109Z,94291.55
2019-04-07T20:09:07.681Z,94294.91
2019-04-07T20:11:39.942Z,94292.59
2019-04-07T20:14:15.437Z,94294.00
2019-04-07T20:17:04.324Z,94284.77
2019-04-07T20:19:42.895Z,94284.77
2019-04-07T20:22:28.134Z,94284.20
2019-04-07T20:25:16.990Z,94284.90
2019-04-07T20:27:56.044Z,94283.62
2019-04-07T20:30:52.432Z,94277.17
2019-04-07T20:33:38.109Z,94277.33
2019-04-07T20:36:23.005Z,94277.37
2019-04-07T20:39:00.468Z,94280.19
2019-04-07T20:41:56.763Z,94275.78
2019-04-07T20:44:38.274Z,94272.69
2019-04-07T20:47:26.361Z,94268.31
2019-04-07T20:50:10.714Z,94268.31
2019-04-07T20:53:10.148Z,94269.30
2019-04-07T20:55:58.289Z,94272.52
2019-04-07T20:58:55.281Z,94271.83
2019-04-07T21:01:36.692Z,94274.42
2019-04-07T21:04:28.947Z,94264.98
2019-04-07T21:07:24.869Z,94265.19
2019-04-07T21:10:12.499Z,94261.64
2019-04-07T21:13:05.753Z,94267.84
2019-04-07T21:16:01.577Z,94268.36
2019-04-07T21:18:50.492Z,94266.38
2019-04-07T21:21:43.925Z,94258.77
2019-04-07T21:24:21.870Z,94266.41
2019-04-07T21:27:02.578Z,94264.12
2019-04-07T21:29:55.168Z,94263.24
2019-04-07T21:32:31.160Z,94257.06
2019-04-07T21:35:17.112Z,94264.20
2019-04-07T21:38:22.900Z,94258.89
2019-04-07T21:41:08.232Z,94257.22
2019-04-07T21:43:55.498Z,94257.64
2019-04-07T21:46:52.099Z,94251.65
2019-04-07T21:49:51.480Z,94250.84
2019-04-07T21:52:45.095Z,94249.31
2019-04-07T21:55:34.578Z,94248.02
2019-04-07T21:58:24.917Z,94238.83
2019-04-07T22:01:14.605Z,94241.52
2019-04-07T22:03:49.701Z,94242.73
2019-04-07T22:06:33.497Z,94242.75
2019-04-07T22:09:23.224Z,94240.58
2019-04-07T22:11:54.583Z,94230.07
2019-04-07T22:14:21.325Z,94230.98
2019-04-07T22:16:49.175Z,94227.47
2019-04-07T22:19:17.714Z,94227.77
2019-04-07T22:21:45.697Z,94229.00
2019-04-07T22:24:14.034Z,94231.17
2019-04-07T22:26:47.047Z,94232.51
2019-04-07T22:29:11.891Z,94230.94
2019-04-07T22:31:51.524Z,94227.27
2019-04-07T22:34:19.382Z,94223.20
2019-04-07T22:36:47.951Z,94226.27
2019-04-07T22:39:16.316Z,94220.20
2019-04-07T22:41:44.265Z,94228.22
2019-04-07T22:44:12.025Z,94224.83
2019-04-07T22:46:39.776Z,94221.58
2019-04-07T22:49:07.519Z,94226.18
2019-04-07T22:51:35.344Z,94225.04
2019-04-07T22:54:03.127Z,94219.58
2019-04-07T22:56:31.163Z,94215.18
2019-04-07T22:58:59.156Z,94217.22
2019-04-07T23:01:27.259Z,94210.88
2019-04-07T23:03:56.008Z,94208.09
2019-04-07T23:06:24.494Z,94211.20
2019-04-07T23:08:53.069Z,94207.92
2019-04-07T23:11:21.096Z,94210.30
2019-04-07T23:13:49.340Z,94208.47
2019-04-07T23:16:17.984Z,94215.69
2019-04-07T23:18:46.825Z,94210.69
2019-04-07T23:21:15.026Z,94204.75
2019-04-07T23:23:42.932Z,94198.44
2019-04-07T23:26:10.788Z,94195.54
2019-04-07T23:28:39.067Z,94202.56
2019-04-07T23:31:07.527Z,94199.11
2019-04-07T23:33:36.123Z,94193.64
2019-04-07T23:36:04.211Z,94193.81
2019-04-07T23:38:33.746Z,94190.92
2019-04-07T23:41:01.420Z,94187.75
2019-04-07T23:43:29.210Z,94186.22
2019-04-07T23:45:56.926Z,94187.14
2019-04-07T23:48:24.722Z,94181.56
2019-04-07T23:50:52.452Z,94182.99
2019-04-07T23:53:20.243Z,94171.52
2019-04-07T23:55:48.465Z,94167.93
2019-04-07T23:58:16.796Z,94171.42
